sensor_id;sensor_type;location;lat;lon;timestamp;temperature;humidity
52513;DHT22;38422;53.172;6.974;2024-02-21T00:01:08;9.40;99.90
52513;DHT22;38422;53.172;6.974;2024-02-21T00:03:33;9.40;99.90
52513;DHT22;38422;53.172;6.974;2024-02-21T00:05:59;9.40;99.90
52513;DHT22;38422;53.172;6.974;2024-02-21T00:08:25;9.40;99.90
52513;DHT22;38422;53.172;6.974;2024-02-21T00:10:50;9.40;99.90
52513;DHT22;38422;53.172;6.974;2024-02-21T00:13:17;9.40;99.90
52513;DHT22;38422;53.172;6.974;2024-02-21T00:15:42;9.40;99.90
52513;DHT22;38422;53.172;6.974;2024-02-21T00:18:08;9.40;99.90
52513;DHT22;38422;53.172;6.974;2024-02-21T00:20:36;9.40;99.90
52513;DHT22;38422;53.172;6.974;2024-02-21T00:23:02;9.40;99.90
52513;DHT22;38422;53.172;6.974;2024-02-21T00:25:27;9.30;99.90
52513;DHT22;38422;53.172;6.974;2024-02-21T00:27:53;9.30;99.90
52513;DHT22;38422;53.172;6.974;2024-02-21T00:30:19;9.30;99.90
52513;DHT22;38422;53.172;6.974;2024-02-21T00:32:44;9.30;99.90
52513;DHT22;38422;53.172;6.974;2024-02-21T00:35:10;9.30;99.90
52513;DHT22;38422;53.172;6.974;2024-02-21T00:37:36;9.30;99.90
52513;DHT22;38422;53.172;6.974;2024-02-21T00:40:01;9.30;99.90
52513;DHT22;38422;53.172;6.974;2024-02-21T00:42:27;9.30;99.90
52513;DHT22;38422;53.172;6.974;2024-02-21T00:44:53;9.20;99.90
52513;DHT22;38422;53.172;6.974;2024-02-21T00:47:18;9.20;99.90
52513;DHT22;38422;53.172;6.974;2024-02-21T00:49:44;9.20;99.90
52513;DHT22;38422;53.172;6.974;2024-02-21T00:52:10;9.20;99.90
52513;DHT22;38422;53.172;6.974;2024-02-21T00:54:36;9.10;99.90
52513;DHT22;38422;53.172;6.974;2024-02-21T00:57:01;9.10;99.90
52513;DHT22;38422;53.172;6.974;2024-02-21T00:59:27;9.10;99.90
52513;DHT22;38422;53.172;6.974;2024-02-21T01:01:53;9.10;99.90
52513;DHT22;38422;53.172;6.974;2024-02-21T01:04:18;9.10;99.90
52513;DHT22;38422;53.172;6.974;2024-02-21T01:06:44;9.10;99.90
52513;DHT22;38422;53.172;6.974;2024-02-21T01:09:11;9.10;99.90
52513;DHT22;38422;53.172;6.974;2024-02-21T01:11:36;9.10;99.90
52513;DHT22;38422;53.172;6.974;2024-02-21T01:14:02;9.10;99.90
52513;DHT22;38422;53.172;6.974;2024-02-21T01:16:28;9.10;99.90
52513;DHT22;38422;53.172;6.974;2024-02-21T01:18:54;9.10;99.90
52513;DHT22;38422;53.172;6.974;2024-02-21T01:21:19;9.10;99.90
52513;DHT22;38422;53.172;6.974;2024-02-21T01:23:45;9.10;99.90
52513;DHT22;38422;53.172;6.974;2024-02-21T01:26:11;9.10;99.90
52513;DHT22;38422;53.172;6.974;2024-02-21T01:28:39;9.10;99.90
52513;DHT22;38422;53.172;6.974;2024-02-21T01:31:05;9.10;99.90
52513;DHT22;38422;53.172;6.974;2024-02-21T01:33:31;9.10;99.90
52513;DHT22;38422;53.172;6.974;2024-02-21T01:36:03;9.10;99.90
52513;DHT22;38422;53.172;6.974;2024-02-21T01:38:29;9.10;99.90
52513;DHT22;38422;53.172;6.974;2024-02-21T01:40:55;9.10;99.90
52513;DHT22;38422;53.172;6.974;2024-02-21T01:43:22;9.10;99.90
52513;DHT22;38422;53.172;6.974;2024-02-21T01:45:53;9.10;99.90
52513;DHT22;38422;53.172;6.974;2024-02-21T01:48:19;9.10;99.90
52513;DHT22;38422;53.172;6.974;2024-02-21T01:50:46;9.10;99.90
52513;DHT22;38422;53.172;6.974;2024-02-21T01:53:14;9.10;99.90
52513;DHT22;38422;53.172;6.974;2024-02-21T01:55:47;9.10;99.90
52513;DHT22;38422;53.172;6.974;2024-02-21T01:58:16;9.10;99.90
52513;DHT22;38422;53.172;6.974;2024-02-21T02:00:44;9.00;99.90
52513;DHT22;38422;53.172;6.974;2024-02-21T02:03:11;9.00;99.90
52513;DHT22;38422;53.172;6.974;2024-02-21T02:05:49;9.00;99.90
52513;DHT22;38422;53.172;6.974;2024-02-21T02:08:16;9.00;99.90
52513;DHT22;38422;53.172;6.974;2024-02-21T02:10:42;8.90;99.90
52513;DHT22;38422;53.172;6.974;2024-02-21T02:13:08;8.90;99.90
52513;DHT22;38422;53.172;6.974;2024-02-21T02:18:06;8.90;99.90
52513;DHT22;38422;53.172;6.974;2024-02-21T02:20:32;8.80;99.90
52513;DHT22;38422;53.172;6.974;2024-02-21T02:22:59;8.80;99.90
52513;DHT22;38422;53.172;6.974;2024-02-21T02:25:25;8.80;99.90
52513;DHT22;38422;53.172;6.974;2024-02-21T02:27:51;8.80;99.90
52513;DHT22;38422;53.172;6.974;2024-02-21T02:30:17;8.80;99.90
52513;DHT22;38422;53.172;6.974;2024-02-21T02:32:46;8.80;99.90
52513;DHT22;38422;53.172;6.974;2024-02-21T02:35:12;8.80;99.90
52513;DHT22;38422;53.172;6.974;2024-02-21T02:37:38;8.80;99.90
52513;DHT22;38422;53.172;6.974;2024-02-21T02:40:07;8.80;99.90
52513;DHT22;38422;53.172;6.974;2024-02-21T02:42:33;8.80;99.90
52513;DHT22;38422;53.172;6.974;2024-02-21T02:44:58;8.70;99.90
52513;DHT22;38422;53.172;6.974;2024-02-21T02:47:24;8.80;99.90
52513;DHT22;38422;53.172;6.974;2024-02-21T02:49:50;8.70;99.90
52513;DHT22;38422;53.172;6.974;2024-02-21T02:52:19;8.70;99.90
52513;DHT22;38422;53.172;6.974;2024-02-21T02:54:45;8.70;99.90
52513;DHT22;38422;53.172;6.974;2024-02-21T02:57:11;8.70;99.90
52513;DHT22;38422;53.172;6.974;2024-02-21T02:59:36;8.70;99.90
52513;DHT22;38422;53.172;6.974;2024-02-21T03:02:02;8.70;99.90
52513;DHT22;38422;53.172;6.974;2024-02-21T03:04:28;8.70;99.90
52513;DHT22;38422;53.172;6.974;2024-02-21T03:06:53;8.70;99.90
52513;DHT22;38422;53.172;6.974;2024-02-21T03:09:19;8.70;99.90
52513;DHT22;38422;53.172;6.974;2024-02-21T03:11:45;8.70;99.90
52513;DHT22;38422;53.172;6.974;2024-02-21T03:14:10;8.70;99.90
52513;DHT22;38422;53.172;6.974;2024-02-21T03:16:36;8.70;99.90
52513;DHT22;38422;53.172;6.974;2024-02-21T03:19:02;8.70;99.90
52513;DHT22;38422;53.172;6.974;2024-02-21T03:21:28;8.70;99.90
52513;DHT22;38422;53.172;6.974;2024-02-21T03:23:54;8.70;99.90
52513;DHT22;38422;53.172;6.974;2024-02-21T03:26:20;8.70;99.90
52513;DHT22;38422;53.172;6.974;2024-02-21T03:28:45;8.70;99.90
52513;DHT22;38422;53.172;6.974;2024-02-21T03:31:12;8.70;99.90
52513;DHT22;38422;53.172;6.974;2024-02-21T03:33:40;8.70;99.90
52513;DHT22;38422;53.172;6.974;2024-02-21T03:36:06;8.70;99.90
52513;DHT22;38422;53.172;6.974;2024-02-21T03:38:32;8.70;99.90
52513;DHT22;38422;53.172;6.974;2024-02-21T03:40:58;8.70;99.90
52513;DHT22;38422;53.172;6.974;2024-02-21T03:43:23;8.70;99.90
52513;DHT22;38422;53.172;6.974;2024-02-21T03:45:49;8.70;99.90
52513;DHT22;38422;53.172;6.974;2024-02-21T03:48:15;8.70;99.90
52513;DHT22;38422;53.172;6.974;2024-02-21T03:50:40;8.70;99.90
52513;DHT22;38422;53.172;6.974;2024-02-21T03:53:06;8.70;99.90
52513;DHT22;38422;53.172;6.974;2024-02-21T03:55:32;8.70;99.90
52513;DHT22;38422;53.172;6.974;2024-02-21T03:57:57;8.70;99.90
52513;DHT22;38422;53.172;6.974;2024-02-21T04:00:23;8.70;99.90
52513;DHT22;38422;53.172;6.974;2024-02-21T04:02:49;8.70;99.90
52513;DHT22;38422;53.172;6.974;2024-02-21T04:05:16;8.70;99.90
52513;DHT22;38422;53.172;6.974;2024-02-21T04:07:42;8.70;99.90
52513;DHT22;38422;53.172;6.974;2024-02-21T04:10:08;8.70;99.90
52513;DHT22;38422;53.172;6.974;2024-02-21T04:12:34;8.70;99.90
52513;DHT22;38422;53.172;6.974;2024-02-21T04:14:59;8.70;99.90
52513;DHT22;38422;53.172;6.974;2024-02-21T04:17:25;8.70;99.90
52513;DHT22;38422;53.172;6.974;2024-02-21T04:19:56;8.70;99.90
52513;DHT22;38422;53.172;6.974;2024-02-21T04:22:26;8.70;99.90
52513;DHT22;38422;53.172;6.974;2024-02-21T04:24:52;8.70;99.90
52513;DHT22;38422;53.172;6.974;2024-02-21T04:27:17;8.70;99.90
52513;DHT22;38422;53.172;6.974;2024-02-21T04:29:43;8.70;99.90
52513;DHT22;38422;53.172;6.974;2024-02-21T04:32:09;8.70;99.90
52513;DHT22;38422;53.172;6.974;2024-02-21T04:34:35;8.70;99.90
52513;DHT22;38422;53.172;6.974;2024-02-21T04:37:00;8.70;99.90
52513;DHT22;38422;53.172;6.974;2024-02-21T04:39:26;8.60;99.90
52513;DHT22;38422;53.172;6.974;2024-02-21T04:41:52;8.70;99.90
52513;DHT22;38422;53.172;6.974;2024-02-21T04:44:18;8.70;99.90
52513;DHT22;38422;53.172;6.974;2024-02-21T04:46:47;8.70;99.90
52513;DHT22;38422;53.172;6.974;2024-02-21T04:49:12;8.70;99.90
52513;DHT22;38422;53.172;6.974;2024-02-21T04:51:41;8.70;99.90
52513;DHT22;38422;53.172;6.974;2024-02-21T04:54:06;8.60;99.90
52513;DHT22;38422;53.172;6.974;2024-02-21T04:56:32;8.60;99.90
52513;DHT22;38422;53.172;6.974;2024-02-21T04:58:58;8.70;99.90
52513;DHT22;38422;53.172;6.974;2024-02-21T05:01:24;8.70;99.90
52513;DHT22;38422;53.172;6.974;2024-02-21T05:03:49;8.60;99.90
52513;DHT22;38422;53.172;6.974;2024-02-21T05:06:15;8.60;99.90
52513;DHT22;38422;53.172;6.974;2024-02-21T05:08:41;8.60;99.90
52513;DHT22;38422;53.172;6.974;2024-02-21T05:11:06;8.60;99.90
52513;DHT22;38422;53.172;6.974;2024-02-21T05:13:32;8.60;99.90
52513;DHT22;38422;53.172;6.974;2024-02-21T05:15:58;8.70;99.90
52513;DHT22;38422;53.172;6.974;2024-02-21T05:18:27;8.70;99.90
52513;DHT22;38422;53.172;6.974;2024-02-21T05:20:53;8.60;99.90
52513;DHT22;38422;53.172;6.974;2024-02-21T05:23:19;8.70;99.90
52513;DHT22;38422;53.172;6.974;2024-02-21T05:25:45;8.60;99.90
52513;DHT22;38422;53.172;6.974;2024-02-21T05:28:10;8.70;99.90
52513;DHT22;38422;53.172;6.974;2024-02-21T05:30:36;8.70;99.90
52513;DHT22;38422;53.172;6.974;2024-02-21T05:33:05;8.60;99.90
52513;DHT22;38422;53.172;6.974;2024-02-21T05:35:31;8.70;99.90
52513;DHT22;38422;53.172;6.974;2024-02-21T05:37:57;8.70;99.90
52513;DHT22;38422;53.172;6.974;2024-02-21T05:40:23;8.70;99.90
52513;DHT22;38422;53.172;6.974;2024-02-21T05:42:49;8.60;99.90
52513;DHT22;38422;53.172;6.974;2024-02-21T05:45:16;8.70;99.90
52513;DHT22;38422;53.172;6.974;2024-02-21T05:47:42;8.70;99.90
52513;DHT22;38422;53.172;6.974;2024-02-21T05:50:08;8.70;99.90
52513;DHT22;38422;53.172;6.974;2024-02-21T05:52:34;8.70;99.90
52513;DHT22;38422;53.172;6.974;2024-02-21T05:54:59;8.70;99.90
52513;DHT22;38422;53.172;6.974;2024-02-21T05:57:25;8.70;99.90
52513;DHT22;38422;53.172;6.974;2024-02-21T05:59:51;8.70;99.90
52513;DHT22;38422;53.172;6.974;2024-02-21T06:02:16;8.70;99.90
52513;DHT22;38422;53.172;6.974;2024-02-21T06:04:42;8.60;99.90
52513;DHT22;38422;53.172;6.974;2024-02-21T06:07:08;8.70;99.90
52513;DHT22;38422;53.172;6.974;2024-02-21T06:09:34;8.70;99.90
52513;DHT22;38422;53.172;6.974;2024-02-21T06:12:00;8.70;99.90
52513;DHT22;38422;53.172;6.974;2024-02-21T06:14:26;8.70;99.90
52513;DHT22;38422;53.172;6.974;2024-02-21T06:16:51;8.70;99.90
52513;DHT22;38422;53.172;6.974;2024-02-21T06:19:17;8.60;99.90
52513;DHT22;38422;53.172;6.974;2024-02-21T06:21:43;8.70;99.90
52513;DHT22;38422;53.172;6.974;2024-02-21T06:24:08;8.70;99.90
52513;DHT22;38422;53.172;6.974;2024-02-21T06:26:34;8.70;99.90
52513;DHT22;38422;53.172;6.974;2024-02-21T06:29:00;8.70;99.90
52513;DHT22;38422;53.172;6.974;2024-02-21T06:31:27;8.70;99.90
52513;DHT22;38422;53.172;6.974;2024-02-21T06:33:53;8.60;99.90
52513;DHT22;38422;53.172;6.974;2024-02-21T06:36:19;8.60;99.90
52513;DHT22;38422;53.172;6.974;2024-02-21T06:38:44;8.60;99.90
52513;DHT22;38422;53.172;6.974;2024-02-21T06:41:17;8.60;99.90
52513;DHT22;38422;53.172;6.974;2024-02-21T06:43:48;8.60;99.90
52513;DHT22;38422;53.172;6.974;2024-02-21T06:46:27;8.60;99.90
52513;DHT22;38422;53.172;6.974;2024-02-21T06:48:54;8.60;99.90
52513;DHT22;38422;53.172;6.974;2024-02-21T06:51:22;8.60;99.90
52513;DHT22;38422;53.172;6.974;2024-02-21T06:53:48;8.60;99.90
52513;DHT22;38422;53.172;6.974;2024-02-21T06:56:14;8.60;99.90
52513;DHT22;38422;53.172;6.974;2024-02-21T06:58:39;8.60;99.90
52513;DHT22;38422;53.172;6.974;2024-02-21T07:01:05;8.60;99.90
52513;DHT22;38422;53.172;6.974;2024-02-21T07:03:31;8.60;99.90
52513;DHT22;38422;53.172;6.974;2024-02-21T07:05:57;8.60;99.90
52513;DHT22;38422;53.172;6.974;2024-02-21T07:08:22;8.60;99.90
52513;DHT22;38422;53.172;6.974;2024-02-21T07:10:48;8.60;99.90
52513;DHT22;38422;53.172;6.974;2024-02-21T07:13:14;8.60;99.90
52513;DHT22;38422;53.172;6.974;2024-02-21T07:15:41;8.60;99.90
52513;DHT22;38422;53.172;6.974;2024-02-21T07:18:07;8.60;99.90
52513;DHT22;38422;53.172;6.974;2024-02-21T07:20:33;8.60;99.90
52513;DHT22;38422;53.172;6.974;2024-02-21T07:22:59;8.60;99.90
52513;DHT22;38422;53.172;6.974;2024-02-21T07:25:25;8.60;99.90
52513;DHT22;38422;53.172;6.974;2024-02-21T07:27:51;8.60;99.90
52513;DHT22;38422;53.172;6.974;2024-02-21T07:30:16;8.60;99.90
52513;DHT22;38422;53.172;6.974;2024-02-21T07:32:42;8.60;99.90
52513;DHT22;38422;53.172;6.974;2024-02-21T07:35:08;8.60;99.90
52513;DHT22;38422;53.172;6.974;2024-02-21T07:37:38;8.60;99.90
52513;DHT22;38422;53.172;6.974;2024-02-21T07:40:12;8.60;99.90
52513;DHT22;38422;53.172;6.974;2024-02-21T07:42:37;8.60;99.90
52513;DHT22;38422;53.172;6.974;2024-02-21T07:45:03;8.60;99.90
52513;DHT22;38422;53.172;6.974;2024-02-21T07:47:29;8.60;99.90
52513;DHT22;38422;53.172;6.974;2024-02-21T07:49:55;8.60;99.90
52513;DHT22;38422;53.172;6.974;2024-02-21T07:52:21;8.60;99.90
52513;DHT22;38422;53.172;6.974;2024-02-21T07:54:48;8.60;99.90
52513;DHT22;38422;53.172;6.974;2024-02-21T07:57:14;8.60;99.90
52513;DHT22;38422;53.172;6.974;2024-02-21T07:59:40;8.60;99.90
52513;DHT22;38422;53.172;6.974;2024-02-21T08:02:05;8.60;99.90
52513;DHT22;38422;53.172;6.974;2024-02-21T08:04:32;8.60;99.90
52513;DHT22;38422;53.172;6.974;2024-02-21T08:06:58;8.60;99.90
52513;DHT22;38422;53.172;6.974;2024-02-21T08:09:27;8.70;99.90
52513;DHT22;38422;53.172;6.974;2024-02-21T08:11:54;8.70;99.90
52513;DHT22;38422;53.172;6.974;2024-02-21T08:14:20;8.70;99.90
52513;DHT22;38422;53.172;6.974;2024-02-21T08:16:46;8.70;99.90
52513;DHT22;38422;53.172;6.974;2024-02-21T08:19:12;8.70;99.90
52513;DHT22;38422;53.172;6.974;2024-02-21T08:21:38;8.70;99.90
52513;DHT22;38422;53.172;6.974;2024-02-21T08:24:04;8.80;99.90
52513;DHT22;38422;53.172;6.974;2024-02-21T08:26:30;8.80;99.90
52513;DHT22;38422;53.172;6.974;2024-02-21T08:28:58;8.70;99.90
52513;DHT22;38422;53.172;6.974;2024-02-21T08:31:26;8.80;99.90
52513;DHT22;38422;53.172;6.974;2024-02-21T08:34:00;8.70;99.90
52513;DHT22;38422;53.172;6.974;2024-02-21T08:36:36;8.70;99.90
52513;DHT22;38422;53.172;6.974;2024-02-21T08:39:03;8.70;99.90
52513;DHT22;38422;53.172;6.974;2024-02-21T08:41:33;8.80;99.90
52513;DHT22;38422;53.172;6.974;2024-02-21T08:43:59;8.70;99.90
52513;DHT22;38422;53.172;6.974;2024-02-21T08:46:25;8.80;99.90
52513;DHT22;38422;53.172;6.974;2024-02-21T08:48:52;8.70;99.90
52513;DHT22;38422;53.172;6.974;2024-02-21T08:51:18;8.70;99.90
52513;DHT22;38422;53.172;6.974;2024-02-21T08:53:47;8.80;99.90
52513;DHT22;38422;53.172;6.974;2024-02-21T08:56:13;8.70;99.90
52513;DHT22;38422;53.172;6.974;2024-02-21T08:58:39;8.70;99.90
52513;DHT22;38422;53.172;6.974;2024-02-21T09:01:08;8.80;99.90
52513;DHT22;38422;53.172;6.974;2024-02-21T09:03:38;8.70;99.90
52513;DHT22;38422;53.172;6.974;2024-02-21T09:06:04;8.70;99.90
52513;DHT22;38422;53.172;6.974;2024-02-21T09:08:30;8.80;99.90
52513;DHT22;38422;53.172;6.974;2024-02-21T09:10:56;8.80;99.90
52513;DHT22;38422;53.172;6.974;2024-02-21T09:13:22;8.80;99.90
52513;DHT22;38422;53.172;6.974;2024-02-21T09:15:49;8.80;99.90
52513;DHT22;38422;53.172;6.974;2024-02-21T09:18:15;8.80;99.90
52513;DHT22;38422;53.172;6.974;2024-02-21T09:20:42;8.80;99.90
52513;DHT22;38422;53.172;6.974;2024-02-21T09:23:08;8.80;99.90
52513;DHT22;38422;53.172;6.974;2024-02-21T09:25:33;8.80;99.90
52513;DHT22;38422;53.172;6.974;2024-02-21T09:28:01;8.90;99.90
52513;DHT22;38422;53.172;6.974;2024-02-21T09:30:27;8.80;99.90
52513;DHT22;38422;53.172;6.974;2024-02-21T09:32:53;8.90;99.90
52513;DHT22;38422;53.172;6.974;2024-02-21T09:35:19;8.80;99.90
52513;DHT22;38422;53.172;6.974;2024-02-21T09:37:45;8.80;99.90
52513;DHT22;38422;53.172;6.974;2024-02-21T09:40:11;8.80;99.90
52513;DHT22;38422;53.172;6.974;2024-02-21T09:42:39;8.80;99.90
52513;DHT22;38422;53.172;6.974;2024-02-21T09:50:34;8.80;99.90
52513;DHT22;38422;53.172;6.974;2024-02-21T09:53:02;8.70;99.90
52513;DHT22;38422;53.172;6.974;2024-02-21T09:55:31;8.70;99.90
52513;DHT22;38422;53.172;6.974;2024-02-21T09:58:01;8.70;99.90
52513;DHT22;38422;53.172;6.974;2024-02-21T10:00:27;8.70;99.90
52513;DHT22;38422;53.172;6.974;2024-02-21T10:02:53;8.70;99.90
52513;DHT22;38422;53.172;6.974;2024-02-21T10:05:20;8.80;99.90
52513;DHT22;38422;53.172;6.974;2024-02-21T10:07:46;8.70;99.90
52513;DHT22;38422;53.172;6.974;2024-02-21T10:10:12;8.70;99.90
52513;DHT22;38422;53.172;6.974;2024-02-21T10:12:48;8.80;99.90
52513;DHT22;38422;53.172;6.974;2024-02-21T10:15:20;8.80;99.90
52513;DHT22;38422;53.172;6.974;2024-02-21T10:17:47;8.80;99.90
52513;DHT22;38422;53.172;6.974;2024-02-21T10:20:12;8.80;99.90
52513;DHT22;38422;53.172;6.974;2024-02-21T10:22:39;8.90;99.90
52513;DHT22;38422;53.172;6.974;2024-02-21T10:25:09;8.90;99.90
52513;DHT22;38422;53.172;6.974;2024-02-21T10:27:36;9.00;99.90
52513;DHT22;38422;53.172;6.974;2024-02-21T10:30:03;9.00;99.90
52513;DHT22;38422;53.172;6.974;2024-02-21T10:32:29;9.10;99.90
52513;DHT22;38422;53.172;6.974;2024-02-21T10:35:05;9.10;99.90
52513;DHT22;38422;53.172;6.974;2024-02-21T10:37:31;9.10;99.90
52513;DHT22;38422;53.172;6.974;2024-02-21T10:40:00;9.10;99.90
52513;DHT22;38422;53.172;6.974;2024-02-21T10:42:29;9.10;99.90
52513;DHT22;38422;53.172;6.974;2024-02-21T10:45:01;9.20;99.90
52513;DHT22;38422;53.172;6.974;2024-02-21T10:47:31;9.20;99.90
52513;DHT22;38422;53.172;6.974;2024-02-21T10:50:04;9.20;99.90
52513;DHT22;38422;53.172;6.974;2024-02-21T10:52:51;9.30;99.90
52513;DHT22;38422;53.172;6.974;2024-02-21T10:55:27;9.30;99.90
52513;DHT22;38422;53.172;6.974;2024-02-21T10:57:54;9.40;99.90
52513;DHT22;38422;53.172;6.974;2024-02-21T11:00:21;9.40;99.90
52513;DHT22;38422;53.172;6.974;2024-02-21T11:02:49;9.50;99.90
52513;DHT22;38422;53.172;6.974;2024-02-21T11:05:16;9.50;99.90
52513;DHT22;38422;53.172;6.974;2024-02-21T11:07:42;9.50;99.90
52513;DHT22;38422;53.172;6.974;2024-02-21T11:10:23;9.50;99.90
52513;DHT22;38422;53.172;6.974;2024-02-21T11:12:53;9.50;99.90
52513;DHT22;38422;53.172;6.974;2024-02-21T11:15:24;9.50;99.90
52513;DHT22;38422;53.172;6.974;2024-02-21T11:17:56;9.50;99.90
52513;DHT22;38422;53.172;6.974;2024-02-21T11:20:32;9.50;99.90
52513;DHT22;38422;53.172;6.974;2024-02-21T11:22:58;9.50;99.90
52513;DHT22;38422;53.172;6.974;2024-02-21T11:25:24;9.60;99.90
52513;DHT22;38422;53.172;6.974;2024-02-21T11:28:02;9.60;99.90
52513;DHT22;38422;53.172;6.974;2024-02-21T11:30:30;9.70;99.90
52513;DHT22;38422;53.172;6.974;2024-02-21T11:33:03;9.70;99.90
52513;DHT22;38422;53.172;6.974;2024-02-21T11:35:35;9.70;99.90
52513;DHT22;38422;53.172;6.974;2024-02-21T11:38:13;9.70;99.90
52513;DHT22;38422;53.172;6.974;2024-02-21T11:40:45;9.70;99.90
52513;DHT22;38422;53.172;6.974;2024-02-21T11:43:11;9.70;99.90
52513;DHT22;38422;53.172;6.974;2024-02-21T11:45:37;9.70;99.90
52513;DHT22;38422;53.172;6.974;2024-02-21T11:48:05;9.70;99.90
52513;DHT22;38422;53.172;6.974;2024-02-21T11:50:31;9.70;99.90
52513;DHT22;38422;53.172;6.974;2024-02-21T11:52:57;9.70;99.90
52513;DHT22;38422;53.172;6.974;2024-02-21T11:55:23;9.80;99.90
52513;DHT22;38422;53.172;6.974;2024-02-21T11:57:49;9.80;99.90
52513;DHT22;38422;53.172;6.974;2024-02-21T12:00:16;9.80;99.90
52513;DHT22;38422;53.172;6.974;2024-02-21T12:02:43;9.80;99.90
52513;DHT22;38422;53.172;6.974;2024-02-21T12:05:09;9.80;99.90
52513;DHT22;38422;53.172;6.974;2024-02-21T12:07:37;9.80;99.90
52513;DHT22;38422;53.172;6.974;2024-02-21T12:10:11;9.80;99.90
52513;DHT22;38422;53.172;6.974;2024-02-21T12:12:38;9.80;99.90
52513;DHT22;38422;53.172;6.974;2024-02-21T12:15:05;9.80;99.90
52513;DHT22;38422;53.172;6.974;2024-02-21T12:17:36;9.80;99.90
52513;DHT22;38422;53.172;6.974;2024-02-21T12:20:06;9.80;99.90
52513;DHT22;38422;53.172;6.974;2024-02-21T12:22:35;9.80;99.90
52513;DHT22;38422;53.172;6.974;2024-02-21T12:25:04;9.80;99.90
52513;DHT22;38422;53.172;6.974;2024-02-21T12:27:41;9.80;99.90
52513;DHT22;38422;53.172;6.974;2024-02-21T12:30:07;9.80;99.90
52513;DHT22;38422;53.172;6.974;2024-02-21T12:32:36;9.80;99.90
52513;DHT22;38422;53.172;6.974;2024-02-21T12:35:01;9.80;99.90
52513;DHT22;38422;53.172;6.974;2024-02-21T12:37:28;9.80;99.90
52513;DHT22;38422;53.172;6.974;2024-02-21T12:39:54;9.80;99.90
52513;DHT22;38422;53.172;6.974;2024-02-21T12:42:20;9.80;99.90
52513;DHT22;38422;53.172;6.974;2024-02-21T12:44:46;9.80;99.90
52513;DHT22;38422;53.172;6.974;2024-02-21T12:47:12;9.80;99.90
52513;DHT22;38422;53.172;6.974;2024-02-21T12:49:37;9.80;99.90
52513;DHT22;38422;53.172;6.974;2024-02-21T12:52:04;9.80;99.90
52513;DHT22;38422;53.172;6.974;2024-02-21T12:54:29;9.80;99.90
52513;DHT22;38422;53.172;6.974;2024-02-21T12:56:56;9.80;99.90
52513;DHT22;38422;53.172;6.974;2024-02-21T12:59:25;9.80;99.90
52513;DHT22;38422;53.172;6.974;2024-02-21T13:01:58;9.80;99.90
52513;DHT22;38422;53.172;6.974;2024-02-21T13:04:24;9.90;99.90
52513;DHT22;38422;53.172;6.974;2024-02-21T13:06:49;9.90;99.90
52513;DHT22;38422;53.172;6.974;2024-02-21T13:09:15;9.90;99.90
52513;DHT22;38422;53.172;6.974;2024-02-21T13:11:42;9.90;99.90
52513;DHT22;38422;53.172;6.974;2024-02-21T13:14:08;9.80;99.90
52513;DHT22;38422;53.172;6.974;2024-02-21T13:16:34;9.80;99.90
52513;DHT22;38422;53.172;6.974;2024-02-21T13:19:05;9.80;99.90
52513;DHT22;38422;53.172;6.974;2024-02-21T13:21:30;9.80;99.90
52513;DHT22;38422;53.172;6.974;2024-02-21T13:23:56;9.80;99.90
52513;DHT22;38422;53.172;6.974;2024-02-21T13:26:22;9.80;99.90
52513;DHT22;38422;53.172;6.974;2024-02-21T13:28:48;9.80;99.90
52513;DHT22;38422;53.172;6.974;2024-02-21T13:31:14;9.80;99.90
52513;DHT22;38422;53.172;6.974;2024-02-21T13:33:42;9.80;99.90
52513;DHT22;38422;53.172;6.974;2024-02-21T13:36:10;9.80;99.90
52513;DHT22;38422;53.172;6.974;2024-02-21T13:38:36;9.80;99.90
52513;DHT22;38422;53.172;6.974;2024-02-21T13:41:01;9.80;99.90
52513;DHT22;38422;53.172;6.974;2024-02-21T13:43:27;9.90;99.90
52513;DHT22;38422;53.172;6.974;2024-02-21T13:46:00;9.80;99.90
52513;DHT22;38422;53.172;6.974;2024-02-21T13:48:30;9.80;99.90
52513;DHT22;38422;53.172;6.974;2024-02-21T13:50:57;9.80;99.90
52513;DHT22;38422;53.172;6.974;2024-02-21T13:53:22;9.90;99.90
52513;DHT22;38422;53.172;6.974;2024-02-21T13:55:49;10.00;99.90
52513;DHT22;38422;53.172;6.974;2024-02-21T13:58:16;10.00;99.90
52513;DHT22;38422;53.172;6.974;2024-02-21T14:00:42;10.00;99.90
52513;DHT22;38422;53.172;6.974;2024-02-21T14:03:08;10.10;99.90
52513;DHT22;38422;53.172;6.974;2024-02-21T14:05:35;10.10;99.90
52513;DHT22;38422;53.172;6.974;2024-02-21T14:08:00;10.00;99.90
52513;DHT22;38422;53.172;6.974;2024-02-21T14:10:26;10.10;99.90
52513;DHT22;38422;53.172;6.974;2024-02-21T14:12:53;10.00;99.90
52513;DHT22;38422;53.172;6.974;2024-02-21T14:15:19;10.00;99.90
52513;DHT22;38422;53.172;6.974;2024-02-21T14:17:44;10.00;99.90
52513;DHT22;38422;53.172;6.974;2024-02-21T14:20:10;10.00;99.90
52513;DHT22;38422;53.172;6.974;2024-02-21T14:22:36;10.00;99.90
52513;DHT22;38422;53.172;6.974;2024-02-21T14:25:03;10.00;99.90
52513;DHT22;38422;53.172;6.974;2024-02-21T14:27:32;10.00;99.90
52513;DHT22;38422;53.172;6.974;2024-02-21T14:29:58;9.90;99.90
52513;DHT22;38422;53.172;6.974;2024-02-21T14:32:23;9.90;99.90
52513;DHT22;38422;53.172;6.974;2024-02-21T14:34:49;9.80;99.90
52513;DHT22;38422;53.172;6.974;2024-02-21T14:37:15;9.70;99.90
52513;DHT22;38422;53.172;6.974;2024-02-21T14:39:41;9.70;99.90
52513;DHT22;38422;53.172;6.974;2024-02-21T14:42:07;9.70;99.90
52513;DHT22;38422;53.172;6.974;2024-02-21T14:44:35;9.70;99.90
52513;DHT22;38422;53.172;6.974;2024-02-21T14:47:02;9.70;99.90
52513;DHT22;38422;53.172;6.974;2024-02-21T14:49:29;9.60;99.90
52513;DHT22;38422;53.172;6.974;2024-02-21T14:51:55;9.60;99.90
52513;DHT22;38422;53.172;6.974;2024-02-21T14:54:20;9.60;99.90
52513;DHT22;38422;53.172;6.974;2024-02-21T14:56:46;9.60;99.90
52513;DHT22;38422;53.172;6.974;2024-02-21T14:59:12;9.60;99.90
52513;DHT22;38422;53.172;6.974;2024-02-21T15:01:38;9.50;99.90
52513;DHT22;38422;53.172;6.974;2024-02-21T15:04:04;9.50;99.90
52513;DHT22;38422;53.172;6.974;2024-02-21T15:06:30;9.50;99.90
52513;DHT22;38422;53.172;6.974;2024-02-21T15:08:57;9.50;99.90
52513;DHT22;38422;53.172;6.974;2024-02-21T15:11:24;9.50;99.90
52513;DHT22;38422;53.172;6.974;2024-02-21T15:13:49;9.50;99.90
52513;DHT22;38422;53.172;6.974;2024-02-21T15:16:16;9.50;99.90
52513;DHT22;38422;53.172;6.974;2024-02-21T15:18:44;9.40;99.90
52513;DHT22;38422;53.172;6.974;2024-02-21T15:21:10;9.40;99.90
52513;DHT22;38422;53.172;6.974;2024-02-21T15:23:39;9.50;99.90
52513;DHT22;38422;53.172;6.974;2024-02-21T15:26:06;9.50;99.90
52513;DHT22;38422;53.172;6.974;2024-02-21T15:28:31;9.40;99.90
52513;DHT22;38422;53.172;6.974;2024-02-21T15:30:57;9.40;99.90
52513;DHT22;38422;53.172;6.974;2024-02-21T15:33:23;9.40;99.90
52513;DHT22;38422;53.172;6.974;2024-02-21T15:35:49;9.40;99.90
52513;DHT22;38422;53.172;6.974;2024-02-21T15:38:16;9.40;99.90
52513;DHT22;38422;53.172;6.974;2024-02-21T15:40:41;9.40;99.90
52513;DHT22;38422;53.172;6.974;2024-02-21T15:43:07;9.40;99.90
52513;DHT22;38422;53.172;6.974;2024-02-21T15:45:34;9.40;99.90
52513;DHT22;38422;53.172;6.974;2024-02-21T15:47:59;9.40;99.90
52513;DHT22;38422;53.172;6.974;2024-02-21T15:50:25;9.40;99.90